createdAt,value
2023-01-26T00:01:40.949Z,2.14
2023-01-26T00:04:07.447Z,2.08
2023-01-26T00:06:34.066Z,2.06
2023-01-26T00:09:00.565Z,2.09
2023-01-26T00:11:27.991Z,1.98
2023-01-26T00:13:55.438Z,1.95
2023-01-26T00:16:22.090Z,1.87
2023-01-26T00:18:48.701Z,2.02
2023-01-26T00:21:16.883Z,2.01
2023-01-26T00:23:43.515Z,2.03
2023-01-26T00:26:10.846Z,2.04
2023-01-26T00:28:39.091Z,1.98
2023-01-26T00:31:13.766Z,2.01
2023-01-26T00:33:40.324Z,2.03
2023-01-26T00:36:09.913Z,2.00
2023-01-26T00:38:36.348Z,2.00
2023-01-26T00:41:02.855Z,2.12
2023-01-26T00:43:29.362Z,1.94
2023-01-26T00:45:55.871Z,2.05
2023-01-26T00:48:24.551Z,1.95
2023-01-26T00:50:52.092Z,2.00
2023-01-26T00:53:18.623Z,1.71
2023-01-26T00:55:45.670Z,1.91
2023-01-26T00:58:12.114Z,1.86
2023-01-26T01:00:38.896Z,1.80
2023-01-26T01:03:05.940Z,2.24
2023-01-26T01:05:32.897Z,1.82
2023-01-26T01:07:59.391Z,1.72
2023-01-26T01:10:27.586Z,1.88
2023-01-26T01:12:54.284Z,1.95
2023-01-26T01:15:22.938Z,2.04
2023-01-26T01:17:49.408Z,2.12
2023-01-26T01:20:16.007Z,1.99
2023-01-26T01:22:42.614Z,2.17
2023-01-26T01:25:09.248Z,2.23
2023-01-26T01:27:35.966Z,2.24
2023-01-26T01:30:07.532Z,2.35
2023-01-26T01:32:35.083Z,2.37
2023-01-26T01:35:01.957Z,2.53
2023-01-26T01:37:29.047Z,2.60
2023-01-26T01:39:55.505Z,2.71
2023-01-26T01:42:22.412Z,2.51
2023-01-26T01:45:08.808Z,2.40
2023-01-26T01:47:35.506Z,2.38
2023-01-26T01:50:04.304Z,2.52
2023-01-26T01:52:31.587Z,2.49
2023-01-26T01:55:16.523Z,2.46
2023-01-26T01:57:51.698Z,2.60
2023-01-26T02:00:20.353Z,2.64
2023-01-26T02:03:11.653Z,2.60
2023-01-26T02:05:48.634Z,2.65
2023-01-26T02:08:17.193Z,2.80
2023-01-26T02:10:46.329Z,2.54
2023-01-26T02:13:13.451Z,2.55
2023-01-26T02:15:42.179Z,2.59
2023-01-26T02:18:11.008Z,2.56
2023-01-26T02:20:40.470Z,2.36
2023-01-26T02:23:20.179Z,2.30
2023-01-26T02:25:46.637Z,2.36
2023-01-26T02:28:13.242Z,2.42
2023-01-26T02:30:39.700Z,2.52
2023-01-26T02:33:06.180Z,2.37
2023-01-26T02:35:34.045Z,2.35
2023-01-26T02:38:01.434Z,2.46
2023-01-26T02:40:43.031Z,2.67
2023-01-26T02:43:09.917Z,2.58
2023-01-26T02:45:38.567Z,2.49
2023-01-26T02:48:08.004Z,2.35
2023-01-26T02:50:35.066Z,2.19
2023-01-26T02:53:02.104Z,2.29
2023-01-26T02:55:29.966Z,2.48
2023-01-26T02:58:07.593Z,2.42
2023-01-26T03:00:41.839Z,2.36
2023-01-26T03:03:21.437Z,2.15
2023-01-26T03:05:50.277Z,2.14
2023-01-26T03:08:17.568Z,2.36
2023-01-26T03:10:44.510Z,2.76
2023-01-26T03:13:11.357Z,2.61
2023-01-26T03:15:44.000Z,2.52
2023-01-26T03:18:35.046Z,2.42
2023-01-26T03:21:21.039Z,2.23
2023-01-26T03:24:06.995Z,2.20
2023-01-26T03:26:52.663Z,2.51
2023-01-26T03:29:19.241Z,2.54
2023-01-26T03:31:46.413Z,2.56
2023-01-26T03:34:13.210Z,2.55
2023-01-26T03:36:40.187Z,2.40
2023-01-26T03:39:31.775Z,2.29
2023-01-26T03:42:17.441Z,2.16
2023-01-26T03:45:02.739Z,2.15
2023-01-26T03:47:49.714Z,2.20
2023-01-26T03:50:34.962Z,2.48
2023-01-26T03:53:20.119Z,2.53
2023-01-26T03:56:05.408Z,2.60
2023-01-26T03:58:33.351Z,2.49
2023-01-26T04:00:59.892Z,2.33
2023-01-26T04:03:45.751Z,2.23
2023-01-26T04:06:31.001Z,2.27
2023-01-26T04:08:57.526Z,2.33
2023-01-26T04:11:23.987Z,2.18
2023-01-26T04:14:09.022Z,2.43
2023-01-26T04:16:54.104Z,2.36
2023-01-26T04:19:39.667Z,2.24
2023-01-26T04:22:06.963Z,2.41
2023-01-26T04:24:35.566Z,2.41
2023-01-26T04:27:01.990Z,2.79
2023-01-26T04:29:34.455Z,2.49
2023-01-26T04:32:01.257Z,2.29
2023-01-26T04:34:28.100Z,2.36
2023-01-26T04:36:54.890Z,2.18
2023-01-26T04:39:24.709Z,2.02
2023-01-26T04:41:54.852Z,2.13
2023-01-26T04:44:21.327Z,1.96
2023-01-26T04:46:48.866Z,1.95
2023-01-26T04:49:15.892Z,2.04
2023-01-26T04:51:42.632Z,1.83
2023-01-26T04:54:09.608Z,1.91
2023-01-26T04:56:39.843Z,1.85
2023-01-26T04:59:07.017Z,1.93
2023-01-26T05:01:35.552Z,1.99
2023-01-26T05:04:05.644Z,1.64
2023-01-26T05:06:33.293Z,1.87
2023-01-26T05:08:59.853Z,1.86
2023-01-26T05:11:27.331Z,1.82
2023-01-26T05:14:04.517Z,1.71
2023-01-26T05:16:58.504Z,1.71
2023-01-26T05:19:46.948Z,1.67
2023-01-26T05:22:19.001Z,1.51
2023-01-26T05:25:05.642Z,1.80
2023-01-26T05:27:53.497Z,1.69
2023-01-26T05:30:20.536Z,1.74
2023-01-26T05:32:48.856Z,1.83
2023-01-26T05:35:15.453Z,1.81
2023-01-26T05:37:42.429Z,1.80
2023-01-26T05:40:10.537Z,1.70
2023-01-26T05:42:37.498Z,1.71
2023-01-26T05:45:13.513Z,1.60
2023-01-26T05:47:40.270Z,1.56
2023-01-26T05:50:06.921Z,1.52
2023-01-26T05:52:34.649Z,1.52
2023-01-26T05:55:01.778Z,1.57
2023-01-26T05:57:28.264Z,1.55
2023-01-26T05:59:59.719Z,1.86
2023-01-26T06:02:29.601Z,1.84
2023-01-26T06:04:56.265Z,1.54
2023-01-26T06:07:22.950Z,1.46
2023-01-26T06:10:15.466Z,1.37
2023-01-26T06:12:55.175Z,1.94
2023-01-26T06:15:40.647Z,1.48
2023-01-26T06:18:07.997Z,1.41
2023-01-26T06:20:35.687Z,1.50
2023-01-26T06:23:04.379Z,1.73
2023-01-26T06:25:34.183Z,1.74
2023-01-26T06:28:01.324Z,1.58
2023-01-26T06:30:29.044Z,1.52
2023-01-26T06:33:00.557Z,1.66
2023-01-26T06:35:28.175Z,1.97
2023-01-26T06:37:59.230Z,1.80
2023-01-26T06:40:25.688Z,1.90
2023-01-26T06:42:52.180Z,1.81
2023-01-26T06:45:20.613Z,1.93
2023-01-26T06:47:48.944Z,1.80
2023-01-26T06:50:20.221Z,1.86
2023-01-26T06:52:50.572Z,1.95
2023-01-26T06:55:41.680Z,1.87
2023-01-26T06:58:34.222Z,1.93
2023-01-26T07:01:24.981Z,1.83
2023-01-26T07:03:52.698Z,1.84
2023-01-26T07:06:19.132Z,1.82
2023-01-26T07:08:45.573Z,1.98
2023-01-26T07:11:12.913Z,1.85
2023-01-26T07:13:39.886Z,1.89
2023-01-26T07:16:07.696Z,1.84
2023-01-26T07:18:34.271Z,2.25
2023-01-26T07:21:04.240Z,2.33
2023-01-26T07:23:30.794Z,2.10
2023-01-26T07:25:57.571Z,1.79
2023-01-26T07:28:25.804Z,1.99
2023-01-26T07:30:53.320Z,1.99
2023-01-26T07:33:19.787Z,2.17
2023-01-26T07:35:46.244Z,2.42
2023-01-26T07:38:12.763Z,2.31
2023-01-26T07:40:39.254Z,2.07
2023-01-26T07:43:05.662Z,2.14
2023-01-26T07:45:52.888Z,2.11
2023-01-26T07:48:23.274Z,2.10
2023-01-26T07:50:50.280Z,2.17
2023-01-26T07:53:19.435Z,2.25
2023-01-26T07:55:46.405Z,2.16
2023-01-26T07:58:12.990Z,2.19
2023-01-26T08:00:39.919Z,2.35
2023-01-26T08:03:06.699Z,1.87
2023-01-26T08:05:33.305Z,2.10
2023-01-26T08:08:00.671Z,2.12
2023-01-26T08:10:31.415Z,2.71
2023-01-26T08:13:01.227Z,2.20
2023-01-26T08:15:28.386Z,2.10
2023-01-26T08:17:55.148Z,1.98
2023-01-26T08:20:21.985Z,1.95
2023-01-26T08:22:48.477Z,1.97
2023-01-26T08:25:14.968Z,1.84
2023-01-26T08:27:41.629Z,2.01
2023-01-26T08:30:08.942Z,2.26
2023-01-26T08:32:35.659Z,2.31
2023-01-26T08:35:02.091Z,2.18
2023-01-26T08:37:28.515Z,2.03
2023-01-26T08:39:55.032Z,2.10
2023-01-26T08:42:22.779Z,2.11
2023-01-26T08:44:49.388Z,1.90
2023-01-26T08:47:15.823Z,1.85
2023-01-26T08:49:42.242Z,1.92
2023-01-26T08:52:08.775Z,1.82
2023-01-26T08:54:35.284Z,1.95
2023-01-26T08:57:01.710Z,1.94
2023-01-26T08:59:28.240Z,1.91
2023-01-26T09:01:55.694Z,2.11
2023-01-26T09:04:22.310Z,2.13
2023-01-26T09:06:48.831Z,2.40
2023-01-26T09:09:15.446Z,2.51
2023-01-26T09:11:42.006Z,2.21
2023-01-26T09:14:08.539Z,2.41
2023-01-26T09:16:35.024Z,1.94
2023-01-26T09:19:02.403Z,1.95
2023-01-26T09:21:28.946Z,1.73
2023-01-26T09:23:55.903Z,2.12
2023-01-26T09:26:22.387Z,1.89
2023-01-26T09:28:52.474Z,1.91
2023-01-26T09:31:19.152Z,1.87
2023-01-26T09:33:45.665Z,1.91
2023-01-26T09:36:12.546Z,1.88
2023-01-26T09:38:40.032Z,2.27
2023-01-26T09:41:25.206Z,2.33
2023-01-26T09:44:00.094Z,2.03
2023-01-26T09:46:40.560Z,1.95
2023-01-26T09:49:11.147Z,2.10
2023-01-26T09:51:38.998Z,2.05
2023-01-26T09:54:15.966Z,1.80
2023-01-26T09:56:42.782Z,1.79
2023-01-26T09:59:32.303Z,1.83
2023-01-26T10:02:17.652Z,1.88
2023-01-26T10:04:46.806Z,1.84
2023-01-26T10:07:14.313Z,1.85
2023-01-26T10:09:50.344Z,1.94
2023-01-26T10:12:16.786Z,2.35
2023-01-26T10:14:46.655Z,2.33
2023-01-26T10:17:15.930Z,2.24
2023-01-26T10:19:55.019Z,2.34
2023-01-26T10:22:30.326Z,2.57
2023-01-26T10:24:57.112Z,2.79
2023-01-26T10:27:23.639Z,2.71
2023-01-26T10:29:50.071Z,2.43
2023-01-26T10:32:17.784Z,2.39
2023-01-26T10:34:46.366Z,2.37
2023-01-26T10:37:42.192Z,2.32
2023-01-26T10:40:09.553Z,2.55
2023-01-26T10:42:36.358Z,2.55
2023-01-26T10:45:07.183Z,2.63
2023-01-26T10:47:33.678Z,2.60
2023-01-26T10:50:19.861Z,2.56
2023-01-26T10:52:59.879Z,2.63
2023-01-26T10:55:26.857Z,2.51
2023-01-26T10:57:53.488Z,2.41
2023-01-26T11:00:22.965Z,2.49
2023-01-26T11:02:54.314Z,2.53
2023-01-26T11:05:20.880Z,2.54
2023-01-26T11:07:49.408Z,2.67
2023-01-26T11:10:15.831Z,2.84
2023-01-26T11:12:42.303Z,3.18
2023-01-26T11:15:27.589Z,2.85
2023-01-26T11:18:02.071Z,2.64
2023-01-26T11:20:49.162Z,2.90
2023-01-26T11:23:18.314Z,2.98
2023-01-26T11:26:03.981Z,2.86
2023-01-26T11:28:44.766Z,2.80
2023-01-26T11:31:20.148Z,3.35
2023-01-26T11:33:46.573Z,3.01
2023-01-26T11:36:12.979Z,3.02
2023-01-26T11:38:40.967Z,2.89
2023-01-26T11:41:32.453Z,2.60
2023-01-26T11:43:58.863Z,2.59
2023-01-26T11:46:39.660Z,2.71
2023-01-26T11:49:14.998Z,2.78
2023-01-26T11:52:00.116Z,3.31
2023-01-26T11:54:49.859Z,3.13
2023-01-26T11:57:16.281Z,3.03
2023-01-26T11:59:46.430Z,2.99
2023-01-26T12:02:31.888Z,3.01
2023-01-26T12:05:03.255Z,3.29
2023-01-26T12:07:30.838Z,2.83
2023-01-26T12:10:00.028Z,2.81
2023-01-26T12:12:39.876Z,2.87
2023-01-26T12:15:11.623Z,3.10
2023-01-26T12:17:44.420Z,3.18
2023-01-26T12:20:17.055Z,3.22
2023-01-26T12:22:49.140Z,3.06
2023-01-26T12:25:35.042Z,3.00
2023-01-26T12:28:11.931Z,2.73
2023-01-26T12:30:57.125Z,2.87
2023-01-26T12:33:24.047Z,2.99
2023-01-26T12:35:53.478Z,2.81
2023-01-26T12:38:23.194Z,2.91
2023-01-26T12:41:05.789Z,2.95
2023-01-26T12:43:51.052Z,2.90
2023-01-26T12:46:17.703Z,2.78
2023-01-26T12:48:50.529Z,2.87
2023-01-26T12:51:30.375Z,3.07
2023-01-26T12:53:56.887Z,3.10
2023-01-26T12:56:37.879Z,3.30
2023-01-26T12:59:09.302Z,3.09
2023-01-26T13:01:39.564Z,3.01
2023-01-26T13:04:10.981Z,3.35
2023-01-26T13:06:37.456Z,3.34
2023-01-26T13:09:19.154Z,2.95
2023-01-26T13:11:53.587Z,3.15
2023-01-26T13:14:27.878Z,3.26
2023-01-26T13:16:54.707Z,3.25
2023-01-26T13:19:39.843Z,3.19
2023-01-26T13:22:26.272Z,3.08
2023-01-26T13:24:55.699Z,3.14
2023-01-26T13:27:37.394Z,3.07
2023-01-26T13:30:24.062Z,3.08
2023-01-26T13:32:50.500Z,2.92
2023-01-26T13:35:18.782Z,3.17
2023-01-26T13:37:53.374Z,3.35
2023-01-26T13:40:22.815Z,3.30
2023-01-26T13:43:00.307Z,3.36
2023-01-26T13:45:26.713Z,3.25
2023-01-26T13:47:54.231Z,3.05
2023-01-26T13:50:34.679Z,2.95
2023-01-26T13:53:01.137Z,3.16
2023-01-26T13:55:30.557Z,3.11
2023-01-26T13:58:12.325Z,2.94
2023-01-26T14:00:38.823Z,3.01
2023-01-26T14:03:05.367Z,3.38
2023-01-26T14:05:32.299Z,3.19
2023-01-26T14:07:59.602Z,3.15
2023-01-26T14:10:28.298Z,3.13
2023-01-26T14:12:58.827Z,3.02
2023-01-26T14:15:27.176Z,3.06
2023-01-26T14:17:58.628Z,3.32
2023-01-26T14:20:26.918Z,3.34
2023-01-26T14:23:19.583Z,3.46
2023-01-26T14:25:48.162Z,3.38
2023-01-26T14:28:15.823Z,3.34
2023-01-26T14:30:42.836Z,3.42
2023-01-26T14:33:16.685Z,3.44
2023-01-26T14:35:54.388Z,3.22
2023-01-26T14:38:21.083Z,3.43
2023-01-26T14:40:51.829Z,3.89
2023-01-26T14:43:18.928Z,3.43
2023-01-26T14:45:58.371Z,3.33
2023-01-26T14:48:27.793Z,3.27
2023-01-26T14:50:54.312Z,3.32
2023-01-26T14:53:24.729Z,3.40
2023-01-26T14:55:52.202Z,3.60
2023-01-26T14:58:29.448Z,3.51
2023-01-26T15:00:58.425Z,3.29
2023-01-26T15:03:27.663Z,3.36
2023-01-26T15:06:04.017Z,3.40
2023-01-26T15:08:30.444Z,3.21
2023-01-26T15:11:17.159Z,3.03
2023-01-26T15:13:47.535Z,2.83
2023-01-26T15:16:16.311Z,2.91
2023-01-26T15:18:43.241Z,3.03
2023-01-26T15:21:20.642Z,3.25
2023-01-26T15:23:51.352Z,3.24
2023-01-26T15:26:23.722Z,3.38
2023-01-26T15:28:51.478Z,3.10
2023-01-26T15:31:30.392Z,3.27
2023-01-26T15:33:58.647Z,3.16
2023-01-26T15:36:25.053Z,3.15
2023-01-26T15:38:57.799Z,3.20
2023-01-26T15:41:24.311Z,3.16
2023-01-26T15:43:50.776Z,3.17
2023-01-26T15:46:17.214Z,3.50
2023-01-26T15:48:43.667Z,3.09
2023-01-26T15:51:14.038Z,2.91
2023-01-26T15:53:40.927Z,2.80
2023-01-26T15:56:11.776Z,2.67
2023-01-26T15:58:38.487Z,2.79
2023-01-26T16:01:05.174Z,2.93
2023-01-26T16:03:31.675Z,2.86
2023-01-26T16:05:58.172Z,2.87
2023-01-26T16:08:24.611Z,3.06
2023-01-26T16:10:51.213Z,3.06
2023-01-26T16:13:18.777Z,2.89
2023-01-26T16:15:49.302Z,2.85
2023-01-26T16:18:15.855Z,2.78
2023-01-26T16:20:43.326Z,2.76
2023-01-26T16:23:16.853Z,2.82
2023-01-26T16:25:43.386Z,2.85
2023-01-26T16:28:09.879Z,2.83
2023-01-26T16:30:36.447Z,2.91
2023-01-26T16:33:03.031Z,2.95
2023-01-26T16:35:29.598Z,2.90
2023-01-26T16:37:56.199Z,2.91
2023-01-26T16:40:22.667Z,2.85
2023-01-26T16:42:53.640Z,2.80
2023-01-26T16:45:21.522Z,2.75
2023-01-26T16:47:49.555Z,2.72
2023-01-26T16:50:16.075Z,2.77
2023-01-26T16:52:42.551Z,2.76
2023-01-26T16:55:12.824Z,2.69
2023-01-26T16:57:41.455Z,2.62
2023-01-26T17:00:13.557Z,2.63
2023-01-26T17:02:41.146Z,2.62
2023-01-26T17:05:09.929Z,2.60
2023-01-26T17:07:36.554Z,2.61
2023-01-26T17:10:03.032Z,2.63
2023-01-26T17:12:29.458Z,2.62
2023-01-26T17:14:55.924Z,2.54
2023-01-26T17:17:22.378Z,2.61
2023-01-26T17:19:48.813Z,2.48
2023-01-26T17:22:15.503Z,2.48
2023-01-26T17:24:42.774Z,2.52
2023-01-26T17:27:10.383Z,2.60
2023-01-26T17:29:36.880Z,2.69
2023-01-26T17:32:03.462Z,2.61
2023-01-26T17:34:29.957Z,2.59
2023-01-26T17:36:57.308Z,2.56
2023-01-26T17:39:24.247Z,2.53
2023-01-26T17:41:50.738Z,2.53
2023-01-26T17:44:17.266Z,2.59
2023-01-26T17:46:43.697Z,2.59
2023-01-26T17:49:10.114Z,2.46
2023-01-26T17:51:36.568Z,2.02
2023-01-26T17:54:03.007Z,2.07
2023-01-26T17:56:30.872Z,2.14
2023-01-26T17:58:57.323Z,2.26
2023-01-26T18:01:24.789Z,2.32
2023-01-26T18:03:51.378Z,2.32
2023-01-26T18:06:17.845Z,2.30
2023-01-26T18:08:44.310Z,2.34
2023-01-26T18:11:12.158Z,2.24
2023-01-26T18:13:38.704Z,2.18
2023-01-26T18:16:06.575Z,2.27
2023-01-26T18:18:33.064Z,2.22
2023-01-26T18:21:09.964Z,2.11
2023-01-26T18:23:36.390Z,2.09
2023-01-26T18:26:04.883Z,2.07
2023-01-26T18:28:31.442Z,1.93
2023-01-26T18:30:58.510Z,2.03
2023-01-26T18:33:25.012Z,1.84
2023-01-26T18:35:51.427Z,1.93
2023-01-26T18:38:17.903Z,1.89
2023-01-26T18:40:44.334Z,1.89
2023-01-26T18:43:10.745Z,2.03
2023-01-26T18:45:40.152Z,2.09
2023-01-26T18:48:06.644Z,2.12
2023-01-26T18:50:33.079Z,1.97
2023-01-26T18:52:59.569Z,1.93
2023-01-26T18:55:26.266Z,2.02
2023-01-26T18:57:54.214Z,2.08
2023-01-26T19:00:21.021Z,2.11
2023-01-26T19:02:47.500Z,2.22
2023-01-26T19:05:14.321Z,2.02
2023-01-26T19:07:41.453Z,1.96
2023-01-26T19:10:08.296Z,2.03
2023-01-26T19:12:34.820Z,1.91
2023-01-26T19:15:01.978Z,1.72
2023-01-26T19:17:29.132Z,1.84
2023-01-26T19:19:55.587Z,2.04
2023-01-26T19:22:22.124Z,2.03
2023-01-26T19:24:48.567Z,2.15
2023-01-26T19:27:15.104Z,2.06
2023-01-26T19:29:41.532Z,1.84
2023-01-26T19:32:08.048Z,1.84
2023-01-26T19:34:35.088Z,1.99
2023-01-26T19:37:01.604Z,2.03
2023-01-26T19:39:28.020Z,1.97
2023-01-26T19:41:54.483Z,1.90
2023-01-26T19:44:20.913Z,1.94
2023-01-26T19:46:50.316Z,1.93
2023-01-26T19:49:17.481Z,1.91
2023-01-26T19:51:43.971Z,1.71
2023-01-26T19:54:10.438Z,1.73
2023-01-26T19:56:37.183Z,1.71
2023-01-26T19:59:05.389Z,1.81
2023-01-26T20:01:32.690Z,1.86
2023-01-26T20:04:03.720Z,1.88
2023-01-26T20:06:31.571Z,1.73
2023-01-26T20:08:58.741Z,1.74
2023-01-26T20:11:26.655Z,1.85
2023-01-26T20:14:00.856Z,1.77
2023-01-26T20:16:28.267Z,1.93
2023-01-26T20:18:55.318Z,1.99
2023-01-26T20:21:22.481Z,1.90
2023-01-26T20:23:55.733Z,1.72
2023-01-26T20:26:23.491Z,1.71
2023-01-26T20:28:50.075Z,1.81
2023-01-26T20:31:18.010Z,1.83
2023-01-26T20:33:47.605Z,1.92
2023-01-26T20:36:16.459Z,1.93
2023-01-26T20:38:42.937Z,2.04
2023-01-26T20:41:10.417Z,2.04
2023-01-26T20:43:39.468Z,2.05
2023-01-26T20:46:09.458Z,2.00
2023-01-26T20:48:35.996Z,2.13
2023-01-26T20:51:22.742Z,2.12
2023-01-26T20:53:50.152Z,2.06
2023-01-26T20:56:17.425Z,2.20
2023-01-26T20:58:44.043Z,2.09
2023-01-26T21:01:12.194Z,2.23
2023-01-26T21:03:39.235Z,2.23
2023-01-26T21:06:06.326Z,2.35
2023-01-26T21:08:32.867Z,2.03
2023-01-26T21:11:00.696Z,2.03
2023-01-26T21:13:27.968Z,2.02
2023-01-26T21:15:54.791Z,2.02
2023-01-26T21:18:21.622Z,1.84
2023-01-26T21:20:57.148Z,1.86
2023-01-26T21:23:24.102Z,1.87
2023-01-26T21:25:50.610Z,2.01
2023-01-26T21:28:17.055Z,2.06
2023-01-26T21:30:43.590Z,2.10
2023-01-26T21:33:10.973Z,1.85
2023-01-26T21:35:37.418Z,1.94
2023-01-26T21:38:03.907Z,1.80
2023-01-26T21:40:30.334Z,1.87
2023-01-26T21:42:56.737Z,1.85
2023-01-26T21:45:41.834Z,1.81
2023-01-26T21:48:27.079Z,1.90
2023-01-26T21:51:14.996Z,2.00
2023-01-26T21:53:41.677Z,1.94
2023-01-26T21:56:08.365Z,1.99
2023-01-26T21:58:53.547Z,1.99
2023-01-26T22:01:23.624Z,2.00
2023-01-26T22:03:50.507Z,2.02
2023-01-26T22:06:17.401Z,2.06
2023-01-26T22:08:43.870Z,1.91
2023-01-26T22:11:10.287Z,1.91
2023-01-26T22:13:36.887Z,1.96
2023-01-26T22:16:04.657Z,2.01
2023-01-26T22:18:31.344Z,2.01
2023-01-26T22:20:57.880Z,1.95
2023-01-26T22:23:24.325Z,1.97
2023-01-26T22:25:50.782Z,1.97
2023-01-26T22:28:17.319Z,1.98
2023-01-26T22:30:43.866Z,1.97
2023-01-26T22:33:10.360Z,2.01
2023-01-26T22:35:36.765Z,2.02
2023-01-26T22:38:03.248Z,2.16
2023-01-26T22:40:29.671Z,2.07
2023-01-26T22:42:56.157Z,1.91
2023-01-26T22:45:23.119Z,2.07
2023-01-26T22:47:50.889Z,2.03
2023-01-26T22:50:19.256Z,2.07
2023-01-26T22:52:47.105Z,2.09
2023-01-26T22:55:14.067Z,1.99
2023-01-26T22:57:40.672Z,2.14
2023-01-26T23:00:07.586Z,2.01
2023-01-26T23:02:34.654Z,2.07
2023-01-26T23:05:01.111Z,2.07
2023-01-26T23:07:27.642Z,2.07
2023-01-26T23:09:54.075Z,2.08
2023-01-26T23:12:20.550Z,2.02
2023-01-26T23:14:47.048Z,2.05
2023-01-26T23:17:13.537Z,2.08
2023-01-26T23:19:40.024Z,2.06
2023-01-26T23:22:06.527Z,1.97
2023-01-26T23:24:32.970Z,1.97
2023-01-26T23:26:59.420Z,1.97
2023-01-26T23:29:25.855Z,2.01
2023-01-26T23:31:52.379Z,1.90
2023-01-26T23:34:18.974Z,1.95
2023-01-26T23:36:45.425Z,1.99
2023-01-26T23:39:11.842Z,2.06
2023-01-26T23:41:38.248Z,2.02
2023-01-26T23:44:04.854Z,1.97
2023-01-26T23:46:31.360Z,1.91
2023-01-26T23:48:57.912Z,1.88
2023-01-26T23:51:24.523Z,1.87
2023-01-26T23:53:50.937Z,1.98
2023-01-26T23:56:17.691Z,2.01
2023-01-26T23:58:44.487Z,1.93
